Time;durP1;ratioP1;P1;durP2;ratioP2;P2;SDS_P1;SDS_P2;PMS_P1;PMS_P2;Temp;Humidity;BMP_temperature;BMP_pressure;BME280_temperature;BME280_humidity;BME280_pressure;Samples;Min_cycle;Max_cycle;Signal;HPM_P1;HPM_P2
2021/12/25 00:01:26;;;;;;;20.07;12.40;;;;;;;-142.75;100.00;58249.25;5048548;28;20020;-67
2021/12/25 00:03:53;;;;;;;15.50;10.38;;;;;;;-142.75;100.00;58249.25;5049424;28;20027;-67
2021/12/25 00:06:19;;;;;;;17.13;9.70;;;;;;;-142.75;100.00;58249.25;5049285;28;20023;-68
2021/12/25 00:08:45;;;;;;;14.02;10.15;;;;;;;-142.75;100.00;58249.25;5049205;28;20025;-68
2021/12/25 00:11:11;;;;;;;14.85;9.23;;;;;;;-142.75;100.00;58249.25;5048464;28;20383;-68
2021/12/25 00:13:37;;;;;;;15.23;9.93;;;;;;;-142.75;100.00;58249.25;5040273;28;20025;-67
2021/12/25 00:16:04;;;;;;;14.37;9.87;;;;;;;-142.75;100.00;58249.25;5029219;28;20022;-67
2021/12/25 00:18:29;;;;;;;;;;;;;;;-142.75;100.00;58249.25;5011937;28;20029;-67
2021/12/25 00:20:55;;;;;;;15.50;9.17;;;;;;;-142.75;100.00;58249.25;5028423;28;19956;-67
2021/12/25 00:23:21;;;;;;;15.35;9.88;;;;;;;-142.75;100.00;58249.25;5029461;28;20026;-68
2021/12/25 00:25:52;;;;;;;13.10;9.53;;;;;;;-142.75;100.00;58249.25;5029422;28;20503;-68
2021/12/25 00:33:47;;;;;;;22.27;11.83;;;;;;;-142.75;100.00;58249.25;5029136;28;20040;-67
2021/12/25 00:36:23;;;;;;;23.13;14.60;;;;;;;-142.75;100.00;58249.25;5011425;28;20025;-67
2021/12/25 00:38:49;;;;;;;27.00;14.73;;;;;;;-142.75;100.00;58249.25;5032744;28;20014;-67
2021/12/25 00:41:18;;;;;;;27.77;14.43;;;;;;;-142.75;100.00;58249.25;5032300;28;20079;-67
2021/12/25 00:43:43;;;;;;;26.67;15.13;;;;;;;-142.75;100.00;58249.25;5033001;28;20513;-67
2021/12/25 00:46:09;;;;;;;28.20;15.40;;;;;;;-142.75;100.00;58249.25;5032756;28;20104;-67
2021/12/25 00:48:34;;;;;;;23.50;14.35;;;;;;;-142.75;100.00;58249.25;5032910;28;20360;-68
2021/12/25 00:51:01;;;;;;;32.03;16.67;;;;;;;-142.75;100.00;58249.25;5014255;28;20083;-67
2021/12/25 00:53:26;;;;;;;33.50;16.50;;;;;;;-142.75;100.00;58249.25;5032892;28;20032;-67
2021/12/25 00:55:52;;;;;;;29.70;16.48;;;;;;;-142.75;100.00;58249.25;5032845;28;20033;-67
2021/12/25 00:58:17;;;;;;;33.40;17.08;;;;;;;-142.75;100.00;58249.25;5032855;28;20032;-67
2021/12/25 01:00:43;;;;;;;34.78;17.08;;;;;;;-142.75;100.00;58249.25;5031833;28;20025;-67
2021/12/25 01:03:08;;;;;;;31.52;17.55;;;;;;;-142.75;100.00;58249.25;5032728;28;20036;-67
2021/12/25 01:05:34;;;;;;;30.70;16.98;;;;;;;-142.75;100.00;58249.25;5032539;28;20037;-67
2021/12/25 01:07:59;;;;;;;32.65;17.88;;;;;;;-142.75;100.00;58249.25;5014775;28;20052;-67
2021/12/25 01:10:25;;;;;;;35.67;19.25;;;;;;;-142.75;100.00;58249.25;5031896;28;20497;-67
2021/12/25 01:15:29;;;;;;;42.10;20.63;;;;;;;-142.75;100.00;58249.25;5032627;28;20044;-66
2021/12/25 01:36:48;;;;;;;30.20;18.80;;;;;;;-142.75;100.00;58249.25;5006847;28;20025;-67
2021/12/25 01:42:03;;;;;;;34.57;18.67;;;;;;;-142.75;100.00;58249.25;5031560;28;20120;-68
2021/12/25 01:49:55;;;;;;;28.40;16.87;;;;;;;-142.75;100.00;58249.25;5030080;28;20374;-67
2021/12/25 01:52:26;;;;;;;28.20;18.40;;;;;;;-142.75;100.00;58249.25;5031651;28;20021;-67
2021/12/25 01:54:52;;;;;;;28.27;16.43;;;;;;;-142.75;100.00;58249.25;5031741;28;20071;-67
2021/12/25 01:57:18;;;;;;;25.57;16.47;;;;;;;-142.75;100.00;58249.25;5031940;28;20112;-68
2021/12/25 01:59:43;;;;;;;30.60;15.60;;;;;;;-142.75;100.00;58249.25;5030832;28;20382;-67
2021/12/25 02:02:08;;;;;;;24.90;16.38;;;;;;;-142.75;100.00;58249.25;5031645;28;20029;-67
2021/12/25 02:04:34;;;;;;;22.65;15.13;;;;;;;-142.75;100.00;58249.25;5031512;28;20555;-68
2021/12/25 02:06:59;;;;;;;24.42;15.32;;;;;;;-142.75;100.00;58249.25;5013624;28;20021;-67
2021/12/25 02:09:25;;;;;;;22.27;14.48;;;;;;;-142.75;100.00;58249.25;5031235;28;20031;-67
2021/12/25 02:11:51;;;;;;;23.15;14.75;;;;;;;-142.75;100.00;58249.25;5031213;28;20070;-67
2021/12/25 02:14:16;;;;;;;24.03;15.50;;;;;;;-142.75;100.00;58249.25;5031659;28;20112;-67
2021/12/25 02:17:13;;;;;;;19.97;13.67;;;;;;;-142.75;100.00;58249.25;5031745;28;20150;-67
2021/12/25 02:19:56;;;;;;;19.63;13.03;;;;;;;-142.75;100.00;58249.25;5030850;28;20382;-66
2021/12/25 02:22:27;;;;;;;19.70;12.60;;;;;;;-142.75;100.00;58249.25;5031236;28;20029;-67
2021/12/25 02:24:52;;;;;;;20.27;13.17;;;;;;;-142.75;100.00;58249.25;5031166;28;20028;-67
2021/12/25 02:27:18;;;;;;;20.90;13.25;;;;;;;-142.75;100.00;58249.25;5031301;28;20021;-67
2021/12/25 02:29:43;;;;;;;21.23;13.55;;;;;;;-142.75;100.00;58249.25;5030207;28;20021;-67
2021/12/25 02:32:08;;;;;;;22.40;13.35;;;;;;;-142.75;100.00;58249.25;5030972;28;20040;-68
2021/12/25 02:34:34;;;;;;;21.33;13.10;;;;;;;-142.75;100.00;58249.25;5030940;28;20029;-67
2021/12/25 02:36:59;;;;;;;19.95;13.18;;;;;;;-142.75;100.00;58249.25;5030894;28;20021;-67
2021/12/25 02:39:24;;;;;;;21.13;12.53;;;;;;;-142.75;100.00;58249.25;5030781;28;20021;-67
2021/12/25 02:41:50;;;;;;;17.40;11.00;;;;;;;-142.75;100.00;58249.25;5030327;28;20279;-68
2021/12/25 02:44:16;;;;;;;16.73;11.75;;;;;;;-142.75;100.00;58249.25;5030907;28;20029;-68
2021/12/25 02:46:42;;;;;;;17.90;12.32;;;;;;;-142.75;100.00;58249.25;5012881;28;20017;-68
2021/12/25 02:49:14;;;;;;;18.38;11.85;;;;;;;-142.75;100.00;58249.25;5030671;28;20025;-67
2021/12/25 02:51:43;;;;;;;16.67;12.30;;;;;;;-142.75;100.00;58249.25;5030035;28;20063;-68
2021/12/25 02:54:08;;;;;;;18.40;11.70;;;;;;;-142.75;100.00;58249.25;5012854;28;20041;-68
2021/12/25 02:56:34;;;;;;;17.58;11.77;;;;;;;-142.75;100.00;58249.25;5030671;28;20084;-67
2021/12/25 02:58:59;;;;;;;16.02;10.82;;;;;;;-142.75;100.00;58249.25;5030285;28;20029;-67
2021/12/25 03:01:24;;;;;;;16.98;11.07;;;;;;;-142.75;100.00;58249.25;5028853;28;20045;-67
2021/12/25 03:03:50;;;;;;;16.15;11.20;;;;;;;-142.75;100.00;58249.25;5030714;28;20022;-68
2021/12/25 03:06:15;;;;;;;17.88;11.55;;;;;;;-142.75;100.00;58249.25;5030384;28;20370;-67
2021/12/25 03:08:42;;;;;;;19.30;12.07;;;;;;;-142.75;100.00;58249.25;5030156;28;20084;-67
2021/12/25 03:11:10;;;;;;;18.70;11.80;;;;;;;-142.75;100.00;58249.25;5029518;28;20101;-67
2021/12/25 03:13:43;;;;;;;17.53;11.17;;;;;;;-142.75;100.00;58249.25;5012436;28;20014;-68
2021/12/25 03:16:10;;;;;;;15.07;10.67;;;;;;;-142.75;100.00;58249.25;5030141;28;20025;-68
2021/12/25 03:18:45;;;;;;;16.60;10.70;;;;;;;-142.75;100.00;58249.25;5030021;28;20690;-67
2021/12/25 03:21:12;;;;;;;15.23;10.50;;;;;;;-142.75;100.00;58249.25;5029350;28;20136;-68
2021/12/25 03:23:38;;;;;;;14.60;9.77;;;;;;;-142.75;100.00;58249.25;5030010;28;20027;-70
2021/12/25 03:26:06;;;;;;;15.60;11.00;;;;;;;-142.75;100.00;58249.25;5029927;28;20017;-67
2021/12/25 03:28:33;;;;;;;15.40;10.30;;;;;;;-142.75;100.00;58249.25;5029769;28;20025;-67
2021/12/25 03:31:05;;;;;;;16.87;11.23;;;;;;;-142.75;100.00;58249.25;5011423;28;20100;-67
2021/12/25 03:33:32;;;;;;;16.73;10.77;;;;;;;-142.75;100.00;58249.25;5029577;28;21062;-69
2021/12/25 03:35:57;;;;;;;20.50;12.63;;;;;;;-142.75;100.00;58249.25;5030019;28;20029;-67
2021/12/25 03:38:26;;;;;;;19.80;13.40;;;;;;;-142.75;100.00;58249.25;5029741;28;20033;-67
2021/12/25 03:40:52;;;;;;;22.07;13.03;;;;;;;-142.75;100.00;58249.25;5029113;28;20100;-70
2021/12/25 03:43:18;;;;;;;22.63;13.50;;;;;;;-142.75;100.00;58249.25;5012011;28;20017;-69
2021/12/25 03:45:45;;;;;;;22.53;14.17;;;;;;;-142.75;100.00;58249.25;5029642;28;20045;-69
2021/12/25 03:48:16;;;;;;;24.63;14.47;;;;;;;-142.75;100.00;58249.25;5029439;28;20027;-69
2021/12/25 03:58:55;;;;;;;26.93;15.83;;;;;;;-142.75;100.00;58249.25;5029637;28;20036;-68
2021/12/25 04:04:13;;;;;;;28.00;16.50;;;;;;;-142.75;100.00;58249.25;5029381;28;20029;-69
2021/12/25 04:06:46;;;;;;;29.47;16.27;;;;;;;-142.75;100.00;58249.25;5029287;28;20017;-70
2021/12/25 04:09:22;;;;;;;28.83;15.90;;;;;;;-142.75;100.00;58249.25;5029233;28;20807;-69
2021/12/25 04:11:48;;;;;;;;;;;;;;;-142.75;100.00;58249.25;5011499;28;20021;-69
2021/12/25 04:14:13;;;;;;;32.77;17.23;;;;;;;-142.75;100.00;58249.25;5029118;28;20287;-69
2021/12/25 04:16:38;;;;;;;29.48;17.52;;;;;;;-142.75;100.00;58249.25;5029300;28;20025;-69
2021/12/25 04:19:04;;;;;;;27.05;16.92;;;;;;;-142.75;100.00;58249.25;5029099;28;20459;-69
2021/12/25 04:21:29;;;;;;;30.48;17.05;;;;;;;-142.75;100.00;58249.25;5028615;28;20025;-69
2021/12/25 04:23:55;;;;;;;31.25;17.55;;;;;;;-142.75;100.00;58249.25;5011521;28;20064;-69
2021/12/25 04:26:23;;;;;;;25.98;16.40;;;;;;;-142.75;100.00;58249.25;5029128;28;20044;-69
2021/12/25 04:29:38;;;;;;;30.37;16.97;;;;;;;-142.75;100.00;58249.25;5029278;28;20022;-69
2021/12/25 04:32:00;;;;;;;30.70;18.57;;;;;;;-142.75;100.00;58249.25;5020939;28;20029;-70
2021/12/25 04:42:52;;;;;;;30.27;17.50;;;;;;;-142.75;100.00;58249.25;5029139;28;20497;-69
2021/12/25 05:04:20;;;;;;;28.70;17.27;;;;;;;-142.75;100.00;58249.25;5048753;28;20029;-66
2021/12/25 05:06:47;;;;;;;33.67;17.70;;;;;;;-142.75;100.00;58249.25;5048878;28;20025;-65
2021/12/25 05:09:12;;;;;;;28.90;17.00;;;;;;;-142.75;100.00;58249.25;5048645;28;20021;-65
2021/12/25 05:11:38;;;;;;;31.73;18.83;;;;;;;-142.75;100.00;58249.25;5047900;28;20017;-67
2021/12/25 05:14:03;;;;;;;31.60;17.35;;;;;;;-142.75;100.00;58249.25;5044586;28;20020;-67
2021/12/25 05:16:28;;;;;;;30.92;17.90;;;;;;;-142.75;100.00;58249.25;5041789;28;20075;-68
2021/12/25 05:18:54;;;;;;;29.88;17.70;;;;;;;-142.75;100.00;58249.25;5039672;28;20387;-66
2021/12/25 05:21:20;;;;;;;26.85;16.08;;;;;;;-142.75;100.00;58249.25;5028246;28;20199;-67
2021/12/25 05:23:47;;;;;;;30.03;18.00;;;;;;;-142.75;100.00;58249.25;5032671;28;20017;-67
2021/12/25 05:26:13;;;;;;;30.40;16.53;;;;;;;-142.75;100.00;58249.25;5047862;28;20043;-66
2021/12/25 05:28:40;;;;;;;28.42;16.92;;;;;;;-142.75;100.00;58249.25;5032219;28;20017;-67
2021/12/25 05:31:07;;;;;;;28.60;17.43;;;;;;;-142.75;100.00;58249.25;5044767;28;20042;-68
2021/12/25 05:33:33;;;;;;;28.67;17.13;;;;;;;-142.75;100.00;58249.25;5052022;28;20059;-67
2021/12/25 05:35:58;;;;;;;33.50;19.42;;;;;;;-142.75;100.00;58249.25;5051970;28;20435;-67
2021/12/25 05:38:24;;;;;;;31.48;17.80;;;;;;;-142.75;100.00;58249.25;5051892;28;20028;-68
2021/12/25 05:40:50;;;;;;;28.25;16.30;;;;;;;-142.75;100.00;58249.25;5050077;28;20028;-67
2021/12/25 05:43:16;;;;;;;26.45;14.88;;;;;;;-142.75;100.00;58249.25;5044414;28;20021;-67
2021/12/25 05:45:42;;;;;;;;;;;;;;;-142.75;100.00;58249.25;5041172;28;20037;-67
2021/12/25 05:48:07;;;;;;;27.93;15.50;;;;;;;-142.75;100.00;58249.25;5051918;28;19935;-67
2021/12/25 05:50:33;;;;;;;26.20;14.15;;;;;;;-142.75;100.00;58249.25;5044441;28;20037;-67
2021/12/25 05:52:59;;;;;;;23.05;14.20;;;;;;;-142.75;100.00;58249.25;5050629;28;20020;-66
2021/12/25 05:55:24;;;;;;;24.98;14.25;;;;;;;-142.75;100.00;58249.25;5035289;28;20641;-67
2021/12/25 05:57:50;;;;;;;27.92;14.27;;;;;;;-142.75;100.00;58249.25;5051752;28;20024;-68
2021/12/25 06:00:17;;;;;;;24.50;14.07;;;;;;;-142.75;100.00;58249.25;5036088;28;20028;-67
2021/12/25 06:02:43;;;;;;;22.13;13.23;;;;;;;-142.75;100.00;58249.25;5040266;28;20020;-67
2021/12/25 06:05:08;;;;;;;;;;;;;;;-142.75;100.00;58249.25;5050579;28;20033;-68
2021/12/25 06:07:34;;;;;;;21.47;12.60;;;;;;;-142.75;100.00;58249.25;5042779;28;19935;-67
2021/12/25 06:10:00;;;;;;;22.23;12.95;;;;;;;-142.75;100.00;58249.25;5039005;28;20497;-67
2021/12/25 06:12:26;;;;;;;21.65;13.65;;;;;;;-142.75;100.00;58249.25;5051371;28;20021;-67
2021/12/25 06:14:53;;;;;;;21.97;14.27;;;;;;;-142.75;100.00;58249.25;5045974;28;20021;-69
2021/12/25 06:17:19;;;;;;;20.83;12.17;;;;;;;-142.75;100.00;58249.25;5051306;28;20013;-67
2021/12/25 06:19:44;;;;;;;21.70;13.07;;;;;;;-142.75;100.00;58249.25;5041073;28;20052;-67
2021/12/25 06:22:09;;;;;;;21.70;12.17;;;;;;;-142.75;100.00;58249.25;5031244;28;20079;-67
2021/12/25 06:24:35;;;;;;;22.73;13.15;;;;;;;-142.75;100.00;58249.25;5031265;28;20686;-67
2021/12/25 06:27:00;;;;;;;21.60;12.50;;;;;;;-142.75;100.00;58249.25;5029846;28;20474;-67
2021/12/25 06:29:26;;;;;;;19.45;11.07;;;;;;;-142.75;100.00;58249.25;5030561;28;20470;-67
2021/12/25 06:31:52;;;;;;;22.83;12.65;;;;;;;-142.75;100.00;58249.25;5050271;28;20032;-69
2021/12/25 06:34:18;;;;;;;20.40;11.33;;;;;;;-142.75;100.00;58249.25;5030058;28;20075;-69
2021/12/25 06:36:44;;;;;;;18.48;11.65;;;;;;;-142.75;100.00;58249.25;5039462;28;20016;-66
2021/12/25 06:39:14;;;;;;;18.23;10.98;;;;;;;-142.75;100.00;58249.25;5044697;28;20025;-67
2021/12/25 06:41:41;;;;;;;18.07;10.17;;;;;;;-142.75;100.00;58249.25;5028929;28;20470;-66
2021/12/25 06:44:06;;;;;;;18.23;10.00;;;;;;;-142.75;100.00;58249.25;5045874;28;20422;-67
2021/12/25 06:46:31;;;;;;;19.35;10.35;;;;;;;-142.75;100.00;58249.25;5050531;28;20059;-67
2021/12/25 06:48:57;;;;;;;16.15;10.07;;;;;;;-142.75;100.00;58249.25;5039947;28;20459;-68
2021/12/25 06:51:22;;;;;;;19.13;9.48;;;;;;;-142.75;100.00;58249.25;5043946;28;20020;-66
2021/12/25 06:53:47;;;;;;;16.92;9.52;;;;;;;-142.75;100.00;58249.25;5049613;28;20131;-67
2021/12/25 06:56:13;;;;;;;17.10;8.93;;;;;;;-142.75;100.00;58249.25;5049284;28;20029;-66
2021/12/25 06:58:38;;;;;;;13.75;6.95;;;;;;;-142.75;100.00;58249.25;5030448;28;20291;-67
2021/12/25 07:01:04;;;;;;;12.40;8.02;;;;;;;-142.75;100.00;58249.25;5028460;28;20026;-67
2021/12/25 07:03:29;;;;;;;13.80;8.55;;;;;;;-142.75;100.00;58249.25;5030418;28;20375;-66
2021/12/25 07:05:54;;;;;;;15.90;8.30;;;;;;;-142.75;100.00;58249.25;5043904;28;20366;-66
2021/12/25 07:08:20;;;;;;;12.95;7.15;;;;;;;-142.75;100.00;58249.25;5030870;28;20028;-67
2021/12/25 07:10:45;;;;;;;14.95;7.07;;;;;;;-142.75;100.00;58249.25;5029906;28;20017;-67
2021/12/25 07:13:16;;;;;;;12.68;6.55;;;;;;;-142.75;100.00;58249.25;5031806;28;20499;-65
2021/12/25 07:15:42;;;;;;;9.10;5.97;;;;;;;-142.75;100.00;58249.25;5029707;28;20779;-66
2021/12/25 07:18:07;;;;;;;9.20;5.50;;;;;;;-142.75;100.00;58249.25;5030055;28;20065;-67
2021/12/25 07:20:32;;;;;;;8.50;5.03;;;;;;;-142.75;100.00;58249.25;5029468;28;20371;-67
2021/12/25 07:22:58;;;;;;;9.35;4.93;;;;;;;-142.75;100.00;58249.25;5028791;28;20025;-67
2021/12/25 07:25:24;;;;;;;9.57;4.97;;;;;;;-142.75;100.00;58249.25;5044808;28;20013;-67
2021/12/25 07:27:50;;;;;;;6.50;4.17;;;;;;;-142.75;100.00;58249.25;5049915;28;20287;-69
2021/12/25 07:30:15;;;;;;;10.98;5.10;;;;;;;-142.75;100.00;58249.25;5049022;28;20031;-66
2021/12/25 07:32:41;;;;;;;7.50;4.20;;;;;;;-142.75;100.00;58249.25;5037236;28;20017;-67
2021/12/25 07:35:06;;;;;;;7.60;4.53;;;;;;;-142.75;100.00;58249.25;5037607;28;20021;-68
2021/12/25 07:37:32;;;;;;;7.00;4.47;;;;;;;-142.75;100.00;58249.25;5044391;28;20033;-67
2021/12/25 07:39:57;;;;;;;7.00;4.07;;;;;;;-142.75;100.00;58249.25;5039478;28;20441;-66
2021/12/25 07:42:22;;;;;;;7.70;3.17;;;;;;;-142.75;100.00;58249.25;5048370;28;20482;-68
2021/12/25 07:44:53;;;;;;;6.32;3.20;;;;;;;-142.75;100.00;58249.25;5048085;28;20100;-67
2021/12/25 07:47:21;;;;;;;5.20;3.27;;;;;;;-142.75;100.00;58249.25;5031589;28;20033;-67
2021/12/25 07:49:46;;;;;;;6.37;2.90;;;;;;;-142.75;100.00;58249.25;5044345;28;20382;-67
2021/12/25 07:52:12;;;;;;;4.30;2.80;;;;;;;-142.75;100.00;58249.25;5043328;28;20021;-67
2021/12/25 07:54:37;;;;;;;5.07;3.00;;;;;;;-142.75;100.00;58249.25;5050264;28;20104;-68
2021/12/25 07:57:03;;;;;;;5.75;2.45;;;;;;;-142.75;100.00;58249.25;5049545;28;20645;-67
2021/12/25 07:59:28;;;;;;;4.68;3.08;;;;;;;-142.75;100.00;58249.25;5049191;28;20017;-67
2021/12/25 08:01:56;;;;;;;6.00;2.55;;;;;;;-142.75;100.00;58249.25;5042778;28;20029;-69
2021/12/25 08:04:21;;;;;;;6.63;2.63;;;;;;;-142.75;100.00;58249.25;5029929;28;20032;-66
2021/12/25 08:06:47;;;;;;;4.55;2.47;;;;;;;-142.75;100.00;58249.25;5029438;28;20033;-67
2021/12/25 08:09:12;;;;;;;4.50;2.80;;;;;;;-142.75;100.00;58249.25;5028661;28;20029;-67
2021/12/25 08:11:38;;;;;;;4.00;2.40;;;;;;;-142.75;100.00;58249.25;5027388;28;20056;-66
2021/12/25 08:14:03;;;;;;;5.28;3.10;;;;;;;-142.75;100.00;58249.25;5027005;28;20033;-68
2021/12/25 08:16:28;;;;;;;4.88;2.78;;;;;;;-142.75;100.00;58249.25;5027890;28;20032;-67
2021/12/25 08:18:54;;;;;;;4.47;2.67;;;;;;;-142.75;100.00;58249.25;5039291;28;20036;-66
2021/12/25 08:21:19;;;;;;;6.13;2.87;;;;;;;-142.75;100.00;58249.25;5048730;28;20024;-67
2021/12/25 08:23:44;;;;;;;4.75;2.95;;;;;;;-142.75;100.00;58249.25;5036577;28;20806;-67
2021/12/25 08:26:10;;;;;;;5.32;2.85;;;;;;;-142.75;100.00;58249.25;5043790;28;20041;-67
2021/12/25 08:28:36;;;;;;;5.97;3.15;;;;;;;-142.75;100.00;58249.25;5037720;28;20040;-68
2021/12/25 08:31:02;;;;;;;10.60;3.20;;;;;;;-142.75;100.00;58249.25;5028524;28;20108;-67
2021/12/25 08:33:27;;;;;;;4.15;2.70;;;;;;;-142.75;100.00;58249.25;5028878;28;20100;-67
2021/12/25 08:35:53;;;;;;;4.57;2.70;;;;;;;-142.75;100.00;58249.25;5028352;28;20555;-67
2021/12/25 08:38:18;;;;;;;5.05;3.10;;;;;;;-142.75;100.00;58249.25;5029353;28;20104;-67
2021/12/25 08:40:44;;;;;;;7.72;3.25;;;;;;;-142.75;100.00;58249.25;5042608;28;20023;-66
2021/12/25 08:43:10;;;;;;;4.85;2.78;;;;;;;-142.75;100.00;58249.25;5047372;28;20032;-67
2021/12/25 08:48:06;;;;;;;4.17;2.50;;;;;;;-142.75;100.00;58249.25;5035667;28;19920;-67
2021/12/25 08:50:32;;;;;;;5.67;2.33;;;;;;;-142.75;100.00;58249.25;5030325;28;20022;-67
2021/12/25 08:52:57;;;;;;;4.60;2.50;;;;;;;-142.75;100.00;58249.25;5037695;28;20101;-67
2021/12/25 08:55:23;;;;;;;4.50;2.78;;;;;;;-142.75;100.00;58249.25;5045189;28;20029;-66
2021/12/25 08:57:49;;;;;;;6.10;3.03;;;;;;;-142.75;100.00;58249.25;5037044;28;20025;-66
2021/12/25 09:00:15;;;;;;;9.23;4.07;;;;;;;-142.75;100.00;58249.25;5033788;28;20017;-67
2021/12/25 09:02:40;;;;;;;4.55;2.50;;;;;;;-142.75;100.00;58249.25;5045897;28;20522;-66
2021/12/25 09:05:06;;;;;;;5.50;2.33;;;;;;;-142.75;100.00;58249.25;5031703;28;20449;-66
2021/12/25 09:07:31;;;;;;;5.10;2.78;;;;;;;-142.75;100.00;58249.25;5035719;28;20025;-66
2021/12/25 09:09:58;;;;;;;7.20;2.65;;;;;;;-142.75;100.00;58249.25;5042048;28;20025;-67
2021/12/25 09:12:24;;;;;;;6.32;2.90;;;;;;;-142.75;100.00;58249.25;5031335;28;20111;-66
2021/12/25 09:14:50;;;;;;;4.63;2.80;;;;;;;-142.75;100.00;58249.25;5036520;28;20490;-66
2021/12/25 09:17:16;;;;;;;4.90;2.88;;;;;;;-142.75;100.00;58249.25;5036959;28;20017;-68
2021/12/25 09:19:42;;;;;;;3.85;2.65;;;;;;;-142.75;100.00;58249.25;5038829;28;20115;-66
2021/12/25 09:22:09;;;;;;;6.17;2.63;;;;;;;-142.75;100.00;58249.25;5031360;28;20417;-67
2021/12/25 09:24:35;;;;;;;4.97;2.80;;;;;;;-142.75;100.00;58249.25;5031234;28;20025;-67
2021/12/25 09:27:02;;;;;;;6.03;2.70;;;;;;;-142.75;100.00;58249.25;5046157;28;20033;-66
2021/12/25 09:29:27;;;;;;;6.33;2.63;;;;;;;-142.75;100.00;58249.25;5051100;28;20032;-67
2021/12/25 09:31:53;;;;;;;6.55;2.75;;;;;;;-142.75;100.00;58249.25;5039637;28;20025;-67
2021/12/25 09:34:18;;;;;;;5.32;2.92;;;;;;;-142.75;100.00;58249.25;5051174;28;20032;-68
2021/12/25 09:36:44;;;;;;;6.53;2.97;;;;;;;-142.75;100.00;58249.25;5050014;28;20029;-67
2021/12/25 09:39:09;;;;;;;6.20;3.13;;;;;;;-142.75;100.00;58249.25;5045486;28;20387;-66
2021/12/25 09:41:35;;;;;;;4.53;3.33;;;;;;;-142.75;100.00;58249.25;5042561;28;20025;-66
2021/12/25 09:44:01;;;;;;;7.55;3.03;;;;;;;-142.75;100.00;58249.25;5030891;28;20033;-67
2021/12/25 09:46:27;;;;;;;5.80;3.00;;;;;;;-142.75;100.00;58249.25;5030855;28;20479;-67
2021/12/25 09:48:54;;;;;;;5.60;3.30;;;;;;;-142.75;100.00;58249.25;5029554;28;20033;-67
2021/12/25 09:51:20;;;;;;;4.77;3.00;;;;;;;-142.75;100.00;58249.25;5044624;28;20029;-66
2021/12/25 09:54:06;;;;;;;4.20;2.83;;;;;;;-142.75;100.00;58249.25;5041100;28;20423;-67
2021/12/25 09:56:34;;;;;;;4.20;2.90;;;;;;;-142.75;100.00;58249.25;5035621;28;20025;-67
2021/12/25 09:58:59;;;;;;;5.33;2.87;;;;;;;-142.75;100.00;58249.25;5033541;28;20260;-67
2021/12/25 10:01:43;;;;;;;4.93;2.90;;;;;;;-142.75;100.00;58249.25;5042497;28;20068;-68
2021/12/25 10:04:12;;;;;;;6.17;3.40;;;;;;;-142.75;100.00;58249.25;5039211;28;20487;-67
2021/12/25 10:06:44;;;;;;;8.20;3.07;;;;;;;-142.75;100.00;58249.25;5028372;28;20096;-67
2021/12/25 10:09:26;;;;;;;7.03;2.93;;;;;;;-142.75;100.00;58249.25;5029471;28;20037;-67
2021/12/25 10:12:09;;;;;;;7.13;3.10;;;;;;;-142.75;100.00;58249.25;5036644;28;20037;-67
2021/12/25 10:14:36;;;;;;;8.13;2.97;;;;;;;-142.75;100.00;58249.25;5032839;28;20037;-66
2021/12/25 10:17:17;;;;;;;6.67;3.13;;;;;;;-142.75;100.00;58249.25;5028774;28;20022;-67
2021/12/25 10:19:58;;;;;;;4.70;2.87;;;;;;;-142.75;100.00;58249.25;5044018;28;20120;-66
2021/12/25 10:22:23;;;;;;;7.23;2.87;;;;;;;-142.75;100.00;58249.25;5050126;28;20024;-67
2021/12/25 10:25:05;;;;;;;5.20;3.00;;;;;;;-142.75;100.00;58249.25;5039161;28;20029;-67
2021/12/25 10:27:31;;;;;;;4.53;2.60;;;;;;;-142.75;100.00;58249.25;5045890;28;20025;-66
2021/12/25 10:30:01;;;;;;;7.95;3.22;;;;;;;-142.75;100.00;58249.25;5037044;28;20467;-67
2021/12/25 10:32:26;;;;;;;5.30;3.07;;;;;;;-142.75;100.00;58249.25;5050268;28;20040;-66
2021/12/25 10:34:53;;;;;;;4.07;2.58;;;;;;;-142.75;100.00;58249.25;5043380;28;20029;-67
2021/12/25 10:37:20;;;;;;;6.77;2.87;;;;;;;-142.75;100.00;58249.25;5050255;28;20071;-69
2021/12/25 10:39:47;;;;;;;5.63;3.07;;;;;;;-142.75;100.00;58249.25;5026698;28;20025;-68
2021/12/25 10:42:19;;;;;;;5.33;3.13;;;;;;;-142.75;100.00;58249.25;5028589;28;20147;-67
2021/12/25 10:44:54;;;;;;;4.70;2.40;;;;;;;-142.75;100.00;58249.25;5038231;28;20116;-67
2021/12/25 10:47:25;;;;;;;5.47;2.30;;;;;;;-142.75;100.00;58249.25;5049864;28;20094;-67
2021/12/25 10:49:54;;;;;;;4.97;2.80;;;;;;;-142.75;100.00;58249.25;5033639;28;20037;-66
2021/12/25 10:52:24;;;;;;;2.90;1.77;;;;;;;-142.75;100.00;58249.25;5029990;28;20102;-67
2021/12/25 10:54:56;;;;;;;6.33;2.17;;;;;;;-142.75;100.00;58249.25;5030055;28;20031;-69
2021/12/25 10:57:35;;;;;;;3.07;1.73;;;;;;;-142.75;100.00;58249.25;5029546;28;20483;-66
2021/12/25 11:00:04;;;;;;;3.20;1.90;;;;;;;-142.75;100.00;58249.25;5027456;28;20074;-67
2021/12/25 11:02:35;;;;;;;3.87;1.80;;;;;;;-142.75;100.00;58249.25;5048133;28;20035;-66
2021/12/25 11:05:22;;;;;;;4.63;1.90;;;;;;;-142.75;100.00;58249.25;5048144;28;20108;-67
2021/12/25 11:08:10;;;;;;;3.65;1.60;;;;;;;-142.75;100.00;58249.25;5049351;28;20032;-66
2021/12/25 11:10:44;;;;;;;3.00;1.80;;;;;;;-142.75;100.00;58249.25;5040785;28;20498;-66
2021/12/25 11:13:34;;;;;;;5.07;1.70;;;;;;;-142.75;100.00;58249.25;5029044;28;20278;-66
2021/12/25 11:16:14;;;;;;;1.70;1.10;;;;;;;-142.75;100.00;58249.25;5029329;28;20038;-65
2021/12/25 11:18:53;;;;;;;2.47;1.40;;;;;;;-142.75;100.00;58249.25;5028125;28;20034;-68
2021/12/25 11:21:19;;;;;;;3.70;1.43;;;;;;;-142.75;100.00;58249.25;5026865;28;20029;-66
2021/12/25 11:23:46;;;;;;;8.82;1.40;;;;;;;-142.75;100.00;58249.25;5032310;28;20036;-67
2021/12/25 11:26:12;;;;;;;2.53;1.20;;;;;;;-142.75;100.00;58249.25;5029615;28;20025;-66
2021/12/25 11:28:41;;;;;;;2.40;1.27;;;;;;;-142.75;100.00;58249.25;5033729;28;20025;-66
2021/12/25 11:31:06;;;;;;;3.57;1.10;;;;;;;-142.75;100.00;58249.25;5032742;28;20035;-66
2021/12/25 11:33:31;;;;;;;3.40;1.27;;;;;;;-142.75;100.00;58249.25;5043374;28;20025;-66
2021/12/25 11:35:57;;;;;;;3.20;1.42;;;;;;;-142.75;100.00;58249.25;5048815;28;20029;-68
2021/12/25 11:38:22;;;;;;;4.05;1.42;;;;;;;-142.75;100.00;58249.25;5040437;28;20036;-66
2021/12/25 11:40:52;;;;;;;2.80;1.50;;;;;;;-142.75;100.00;58249.25;5033081;28;20025;-66
2021/12/25 11:43:33;;;;;;;3.57;1.20;;;;;;;-142.75;100.00;58249.25;5032044;28;20029;-70
2021/12/25 11:45:59;;;;;;;2.33;1.37;;;;;;;-142.75;100.00;58249.25;5028919;28;20033;-67
2021/12/25 11:48:24;;;;;;;2.33;1.30;;;;;;;-142.75;100.00;58249.25;5030033;28;20022;-67
2021/12/25 11:50:52;;;;;;;2.10;1.20;;;;;;;-142.75;100.00;58249.25;5028241;28;20035;-67
2021/12/25 11:53:42;;;;;;;3.53;1.30;;;;;;;-142.75;100.00;58249.25;5028997;28;20495;-66
2021/12/25 11:58:51;;;;;;;2.13;1.00;;;;;;;-142.75;100.00;58249.25;5028566;28;20033;-68
2021/12/25 12:01:17;;;;;;;2.17;1.10;;;;;;;-142.75;100.00;58249.25;5030277;28;20028;-67
2021/12/25 12:03:46;;;;;;;1.87;1.07;;;;;;;-142.75;100.00;58249.25;5046967;28;20118;-68
2021/12/25 12:06:13;;;;;;;2.33;1.10;;;;;;;-142.75;100.00;58249.25;5048436;28;20083;-67
2021/12/25 12:08:53;;;;;;;2.73;1.20;;;;;;;-142.75;100.00;58249.25;5039969;28;20052;-67
2021/12/25 12:11:29;;;;;;;2.67;1.23;;;;;;;-142.75;100.00;58249.25;5046167;28;20109;-67
2021/12/25 12:14:19;;;;;;;4.13;2.05;;;;;;;-142.75;100.00;58249.25;5048536;28;20029;-66
2021/12/25 12:16:56;;;;;;;2.07;1.00;;;;;;;-142.75;100.00;58249.25;5048346;28;20025;-67
2021/12/25 12:19:35;;;;;;;1.77;0.90;;;;;;;-142.75;100.00;58249.25;5046910;28;20070;-67
2021/12/25 12:27:37;;;;;;;2.23;0.90;;;;;;;-142.75;100.00;58249.25;5044337;28;20041;-68
2021/12/25 12:30:08;;;;;;;1.13;0.60;;;;;;;-142.75;100.00;58249.25;5046426;28;20147;-67